sensor_id;sensor_type;location;lat;lon;timestamp;temperature;humidity
46488;DHT22;32202;48.780;9.204;2022-08-19T00:00:05;22.50;77.20
46488;DHT22;32202;48.780;9.204;2022-08-19T00:02:32;22.50;77.30
46488;DHT22;32202;48.780;9.204;2022-08-19T00:04:57;22.40;77.50
46488;DHT22;32202;48.780;9.204;2022-08-19T00:07:23;22.40;77.50
46488;DHT22;32202;48.780;9.204;2022-08-19T00:09:49;22.40;77.70
46488;DHT22;32202;48.780;9.204;2022-08-19T00:12:14;22.40;77.70
46488;DHT22;32202;48.780;9.204;2022-08-19T00:14:40;22.40;77.90
46488;DHT22;32202;48.780;9.204;2022-08-19T00:17:07;22.40;78.20
46488;DHT22;32202;48.780;9.204;2022-08-19T00:19:35;22.30;78.30
46488;DHT22;32202;48.780;9.204;2022-08-19T00:22:00;22.30;78.70
46488;DHT22;32202;48.780;9.204;2022-08-19T00:24:27;22.20;78.80
46488;DHT22;32202;48.780;9.204;2022-08-19T00:26:54;22.20;79.00
46488;DHT22;32202;48.780;9.204;2022-08-19T00:29:21;22.20;79.10
46488;DHT22;32202;48.780;9.204;2022-08-19T00:31:47;22.20;79.20
46488;DHT22;32202;48.780;9.204;2022-08-19T00:34:14;22.20;79.20
46488;DHT22;32202;48.780;9.204;2022-08-19T00:36:41;22.20;79.30
46488;DHT22;32202;48.780;9.204;2022-08-19T00:39:08;22.20;79.30
46488;DHT22;32202;48.780;9.204;2022-08-19T00:41:34;22.20;79.50
46488;DHT22;32202;48.780;9.204;2022-08-19T00:44:16;22.20;79.60
46488;DHT22;32202;48.780;9.204;2022-08-19T00:46:44;22.20;79.80
46488;DHT22;32202;48.780;9.204;2022-08-19T00:49:15;22.10;79.90
46488;DHT22;32202;48.780;9.204;2022-08-19T00:51:43;22.10;80.00
46488;DHT22;32202;48.780;9.204;2022-08-19T00:54:10;22.10;80.20
46488;DHT22;32202;48.780;9.204;2022-08-19T00:56:37;22.00;80.40
46488;DHT22;32202;48.780;9.204;2022-08-19T00:59:03;22.10;80.50
46488;DHT22;32202;48.780;9.204;2022-08-19T01:01:38;22.10;80.40
46488;DHT22;32202;48.780;9.204;2022-08-19T01:04:04;22.10;80.30
46488;DHT22;32202;48.780;9.204;2022-08-19T01:06:31;22.10;80.20
46488;DHT22;32202;48.780;9.204;2022-08-19T01:08:58;22.10;80.30
46488;DHT22;32202;48.780;9.204;2022-08-19T01:11:24;22.10;80.30
46488;DHT22;32202;48.780;9.204;2022-08-19T01:13:52;22.10;80.40
46488;DHT22;32202;48.780;9.204;2022-08-19T01:16:19;22.10;80.60
46488;DHT22;32202;48.780;9.204;2022-08-19T01:18:46;22.00;80.60
46488;DHT22;32202;48.780;9.204;2022-08-19T01:21:21;22.10;80.70
46488;DHT22;32202;48.780;9.204;2022-08-19T01:23:47;22.10;80.70
46488;DHT22;32202;48.780;9.204;2022-08-19T01:26:16;22.10;80.80
46488;DHT22;32202;48.780;9.204;2022-08-19T01:28:43;22.00;80.90
46488;DHT22;32202;48.780;9.204;2022-08-19T01:31:15;22.00;81.00
46488;DHT22;32202;48.780;9.204;2022-08-19T01:33:41;22.00;81.00
46488;DHT22;32202;48.780;9.204;2022-08-19T01:36:11;22.00;81.10
46488;DHT22;32202;48.780;9.204;2022-08-19T01:38:41;22.00;81.20
46488;DHT22;32202;48.780;9.204;2022-08-19T01:41:09;22.00;81.40
46488;DHT22;32202;48.780;9.204;2022-08-19T01:43:34;21.90;81.50
46488;DHT22;32202;48.780;9.204;2022-08-19T01:46:00;21.90;81.60
46488;DHT22;32202;48.780;9.204;2022-08-19T01:48:26;21.90;81.70
46488;DHT22;32202;48.780;9.204;2022-08-19T01:50:54;21.90;81.80
46488;DHT22;32202;48.780;9.204;2022-08-19T01:53:21;21.90;81.90
46488;DHT22;32202;48.780;9.204;2022-08-19T01:55:46;21.90;82.00
46488;DHT22;32202;48.780;9.204;2022-08-19T01:58:19;21.90;82.10
46488;DHT22;32202;48.780;9.204;2022-08-19T02:00:47;21.90;82.40
46488;DHT22;32202;48.780;9.204;2022-08-19T02:03:13;21.80;82.60
46488;DHT22;32202;48.780;9.204;2022-08-19T02:05:40;21.80;82.60
46488;DHT22;32202;48.780;9.204;2022-08-19T02:08:06;21.80;82.70
46488;DHT22;32202;48.780;9.204;2022-08-19T02:10:32;21.80;83.00
46488;DHT22;32202;48.780;9.204;2022-08-19T02:12:58;21.80;83.20
46488;DHT22;32202;48.780;9.204;2022-08-19T02:15:24;21.80;83.40
46488;DHT22;32202;48.780;9.204;2022-08-19T02:17:51;21.80;83.50
46488;DHT22;32202;48.780;9.204;2022-08-19T02:20:17;21.70;83.70
46488;DHT22;32202;48.780;9.204;2022-08-19T02:22:44;21.70;84.00
46488;DHT22;32202;48.780;9.204;2022-08-19T02:25:13;21.70;84.10
46488;DHT22;32202;48.780;9.204;2022-08-19T02:27:40;21.70;84.60
46488;DHT22;32202;48.780;9.204;2022-08-19T02:30:08;21.60;85.00
46488;DHT22;32202;48.780;9.204;2022-08-19T02:32:34;21.60;85.20
46488;DHT22;32202;48.780;9.204;2022-08-19T02:34:59;21.60;85.50
46488;DHT22;32202;48.780;9.204;2022-08-19T02:37:25;21.60;85.60
46488;DHT22;32202;48.780;9.204;2022-08-19T02:40:09;21.60;85.50
46488;DHT22;32202;48.780;9.204;2022-08-19T02:42:35;21.60;85.40
46488;DHT22;32202;48.780;9.204;2022-08-19T02:45:01;21.60;85.50
46488;DHT22;32202;48.780;9.204;2022-08-19T02:47:27;21.60;85.80
46488;DHT22;32202;48.780;9.204;2022-08-19T02:49:52;21.60;85.80
46488;DHT22;32202;48.780;9.204;2022-08-19T02:52:18;21.60;86.20
46488;DHT22;32202;48.780;9.204;2022-08-19T02:54:43;21.60;86.40
46488;DHT22;32202;48.780;9.204;2022-08-19T02:57:09;21.60;86.40
46488;DHT22;32202;48.780;9.204;2022-08-19T02:59:35;21.50;86.60
46488;DHT22;32202;48.780;9.204;2022-08-19T03:02:00;21.50;87.00
46488;DHT22;32202;48.780;9.204;2022-08-19T03:04:26;21.50;87.40
46488;DHT22;32202;48.780;9.204;2022-08-19T03:06:52;21.40;87.70
46488;DHT22;32202;48.780;9.204;2022-08-19T03:09:19;21.50;88.20
46488;DHT22;32202;48.780;9.204;2022-08-19T03:11:45;21.40;88.00
46488;DHT22;32202;48.780;9.204;2022-08-19T03:14:12;21.40;87.90
46488;DHT22;32202;48.780;9.204;2022-08-19T03:16:44;21.40;88.10
46488;DHT22;32202;48.780;9.204;2022-08-19T03:19:10;21.30;88.70
46488;DHT22;32202;48.780;9.204;2022-08-19T03:21:36;21.30;89.10
46488;DHT22;32202;48.780;9.204;2022-08-19T03:24:05;21.30;88.90
46488;DHT22;32202;48.780;9.204;2022-08-19T03:26:32;21.30;89.30
46488;DHT22;32202;48.780;9.204;2022-08-19T03:29:01;21.30;89.40
46488;DHT22;32202;48.780;9.204;2022-08-19T03:31:27;21.20;89.50
46488;DHT22;32202;48.780;9.204;2022-08-19T03:33:53;21.20;89.80
46488;DHT22;32202;48.780;9.204;2022-08-19T03:36:24;21.20;90.00
46488;DHT22;32202;48.780;9.204;2022-08-19T03:38:53;21.20;90.00
46488;DHT22;32202;48.780;9.204;2022-08-19T03:41:29;21.20;90.20
46488;DHT22;32202;48.780;9.204;2022-08-19T03:43:56;21.20;90.30
46488;DHT22;32202;48.780;9.204;2022-08-19T03:46:25;21.10;90.40
46488;DHT22;32202;48.780;9.204;2022-08-19T03:48:53;21.10;90.40
46488;DHT22;32202;48.780;9.204;2022-08-19T03:51:25;21.10;90.50
46488;DHT22;32202;48.780;9.204;2022-08-19T03:53:53;21.10;90.50
46488;DHT22;32202;48.780;9.204;2022-08-19T03:56:19;21.10;90.60
46488;DHT22;32202;48.780;9.204;2022-08-19T03:58:45;21.10;90.90
46488;DHT22;32202;48.780;9.204;2022-08-19T04:01:16;21.10;90.70
46488;DHT22;32202;48.780;9.204;2022-08-19T04:03:43;21.00;90.80
46488;DHT22;32202;48.780;9.204;2022-08-19T04:06:11;21.00;90.80
46488;DHT22;32202;48.780;9.204;2022-08-19T04:08:39;21.10;90.80
46488;DHT22;32202;48.780;9.204;2022-08-19T04:11:09;21.00;90.80
46488;DHT22;32202;48.780;9.204;2022-08-19T04:13:37;21.00;90.90
46488;DHT22;32202;48.780;9.204;2022-08-19T04:16:04;21.00;90.80
46488;DHT22;32202;48.780;9.204;2022-08-19T04:18:31;21.00;90.80
46488;DHT22;32202;48.780;9.204;2022-08-19T04:20:58;21.00;90.90
46488;DHT22;32202;48.780;9.204;2022-08-19T04:23:24;20.90;91.00
46488;DHT22;32202;48.780;9.204;2022-08-19T04:25:49;20.90;91.10
46488;DHT22;32202;48.780;9.204;2022-08-19T04:28:15;21.00;91.10
46488;DHT22;32202;48.780;9.204;2022-08-19T04:30:46;21.00;91.00
46488;DHT22;32202;48.780;9.204;2022-08-19T04:33:17;21.00;90.80
46488;DHT22;32202;48.780;9.204;2022-08-19T04:35:46;20.90;90.90
46488;DHT22;32202;48.780;9.204;2022-08-19T04:38:14;20.90;90.90
46488;DHT22;32202;48.780;9.204;2022-08-19T04:40:42;21.00;90.80
46488;DHT22;32202;48.780;9.204;2022-08-19T04:43:27;21.00;90.70
46488;DHT22;32202;48.780;9.204;2022-08-19T04:45:53;20.90;90.80
46488;DHT22;32202;48.780;9.204;2022-08-19T04:48:19;20.90;90.80
46488;DHT22;32202;48.780;9.204;2022-08-19T04:50:52;21.00;90.90
46488;DHT22;32202;48.780;9.204;2022-08-19T04:53:27;21.00;90.80
46488;DHT22;32202;48.780;9.204;2022-08-19T04:55:55;21.00;90.70
46488;DHT22;32202;48.780;9.204;2022-08-19T04:58:22;21.00;90.70
46488;DHT22;32202;48.780;9.204;2022-08-19T05:00:49;21.00;90.60
46488;DHT22;32202;48.780;9.204;2022-08-19T05:03:14;21.00;90.60
46488;DHT22;32202;48.780;9.204;2022-08-19T05:05:43;21.10;90.60
46488;DHT22;32202;48.780;9.204;2022-08-19T05:08:11;21.10;90.60
46488;DHT22;32202;48.780;9.204;2022-08-19T05:10:38;21.10;90.50
46488;DHT22;32202;48.780;9.204;2022-08-19T05:13:04;21.10;90.50
46488;DHT22;32202;48.780;9.204;2022-08-19T05:15:30;21.10;90.50
46488;DHT22;32202;48.780;9.204;2022-08-19T05:17:56;21.20;90.40
46488;DHT22;32202;48.780;9.204;2022-08-19T05:20:40;21.10;90.30
46488;DHT22;32202;48.780;9.204;2022-08-19T05:23:24;21.10;90.40
46488;DHT22;32202;48.780;9.204;2022-08-19T05:25:51;21.10;90.50
46488;DHT22;32202;48.780;9.204;2022-08-19T05:28:18;21.20;90.40
46488;DHT22;32202;48.780;9.204;2022-08-19T05:30:44;21.20;90.40
46488;DHT22;32202;48.780;9.204;2022-08-19T05:33:10;21.20;90.30
46488;DHT22;32202;48.780;9.204;2022-08-19T05:35:38;21.20;90.40
46488;DHT22;32202;48.780;9.204;2022-08-19T05:38:05;21.20;90.40
46488;DHT22;32202;48.780;9.204;2022-08-19T05:40:34;21.20;90.30
46488;DHT22;32202;48.780;9.204;2022-08-19T05:43:02;21.20;90.40
46488;DHT22;32202;48.780;9.204;2022-08-19T05:45:27;21.20;90.40
46488;DHT22;32202;48.780;9.204;2022-08-19T05:47:53;21.20;90.40
46488;DHT22;32202;48.780;9.204;2022-08-19T05:50:19;21.20;90.40
46488;DHT22;32202;48.780;9.204;2022-08-19T05:52:45;21.20;90.30
46488;DHT22;32202;48.780;9.204;2022-08-19T05:55:11;21.30;90.30
46488;DHT22;32202;48.780;9.204;2022-08-19T05:57:36;21.30;90.30
46488;DHT22;32202;48.780;9.204;2022-08-19T06:00:05;21.30;90.20
46488;DHT22;32202;48.780;9.204;2022-08-19T06:02:35;21.30;90.10
46488;DHT22;32202;48.780;9.204;2022-08-19T06:05:01;21.40;90.10
46488;DHT22;32202;48.780;9.204;2022-08-19T06:07:28;21.40;90.00
46488;DHT22;32202;48.780;9.204;2022-08-19T06:09:54;21.40;89.90
46488;DHT22;32202;48.780;9.204;2022-08-19T06:12:20;21.40;89.90
46488;DHT22;32202;48.780;9.204;2022-08-19T06:14:51;21.40;89.60
46488;DHT22;32202;48.780;9.204;2022-08-19T06:17:18;21.30;89.90
46488;DHT22;32202;48.780;9.204;2022-08-19T06:19:43;21.40;89.80
46488;DHT22;32202;48.780;9.204;2022-08-19T06:22:09;21.40;90.00
46488;DHT22;32202;48.780;9.204;2022-08-19T06:24:37;21.40;90.00
46488;DHT22;32202;48.780;9.204;2022-08-19T06:27:03;21.40;90.10
46488;DHT22;32202;48.780;9.204;2022-08-19T06:29:31;21.40;90.10
46488;DHT22;32202;48.780;9.204;2022-08-19T06:31:59;21.40;90.20
46488;DHT22;32202;48.780;9.204;2022-08-19T06:34:27;21.40;90.70
46488;DHT22;32202;48.780;9.204;2022-08-19T06:36:53;21.40;91.40
46488;DHT22;32202;48.780;9.204;2022-08-19T06:39:22;21.40;91.60
46488;DHT22;32202;48.780;9.204;2022-08-19T06:41:52;21.40;91.90
46488;DHT22;32202;48.780;9.204;2022-08-19T06:44:20;21.40;92.50
46488;DHT22;32202;48.780;9.204;2022-08-19T06:46:46;21.40;92.30
46488;DHT22;32202;48.780;9.204;2022-08-19T06:49:14;21.40;92.60
46488;DHT22;32202;48.780;9.204;2022-08-19T06:51:44;21.40;93.10
46488;DHT22;32202;48.780;9.204;2022-08-19T06:54:10;21.40;92.60
46488;DHT22;32202;48.780;9.204;2022-08-19T06:56:36;21.30;92.80
46488;DHT22;32202;48.780;9.204;2022-08-19T06:59:11;21.30;93.10
46488;DHT22;32202;48.780;9.204;2022-08-19T07:01:43;21.30;93.40
46488;DHT22;32202;48.780;9.204;2022-08-19T07:04:14;21.30;92.70
46488;DHT22;32202;48.780;9.204;2022-08-19T07:06:41;21.30;93.30
46488;DHT22;32202;48.780;9.204;2022-08-19T07:09:08;21.40;93.10
46488;DHT22;32202;48.780;9.204;2022-08-19T07:11:34;21.40;92.80
46488;DHT22;32202;48.780;9.204;2022-08-19T07:14:01;21.40;92.40
46488;DHT22;32202;48.780;9.204;2022-08-19T07:16:27;21.40;92.40
46488;DHT22;32202;48.780;9.204;2022-08-19T07:18:53;21.40;91.90
46488;DHT22;32202;48.780;9.204;2022-08-19T07:21:23;21.50;91.70
46488;DHT22;32202;48.780;9.204;2022-08-19T07:23:50;21.50;91.70
46488;DHT22;32202;48.780;9.204;2022-08-19T07:26:22;21.50;91.80
46488;DHT22;32202;48.780;9.204;2022-08-19T07:28:49;21.40;91.60
46488;DHT22;32202;48.780;9.204;2022-08-19T07:31:17;21.40;91.50
46488;DHT22;32202;48.780;9.204;2022-08-19T07:33:44;21.50;91.40
46488;DHT22;32202;48.780;9.204;2022-08-19T07:36:12;21.50;91.10
46488;DHT22;32202;48.780;9.204;2022-08-19T07:38:39;21.50;91.00
46488;DHT22;32202;48.780;9.204;2022-08-19T07:41:06;21.50;91.00
46488;DHT22;32202;48.780;9.204;2022-08-19T07:43:31;21.50;90.80
46488;DHT22;32202;48.780;9.204;2022-08-19T07:45:57;21.50;90.70
46488;DHT22;32202;48.780;9.204;2022-08-19T07:48:25;21.50;90.80
46488;DHT22;32202;48.780;9.204;2022-08-19T07:50:56;21.40;90.80
46488;DHT22;32202;48.780;9.204;2022-08-19T07:53:23;21.40;90.80
46488;DHT22;32202;48.780;9.204;2022-08-19T07:55:50;21.40;90.80
46488;DHT22;32202;48.780;9.204;2022-08-19T07:58:20;21.40;90.80
46488;DHT22;32202;48.780;9.204;2022-08-19T08:00:46;21.40;91.00
46488;DHT22;32202;48.780;9.204;2022-08-19T08:03:14;21.40;91.40
46488;DHT22;32202;48.780;9.204;2022-08-19T08:05:40;21.40;92.00
46488;DHT22;32202;48.780;9.204;2022-08-19T08:08:24;21.40;92.60
46488;DHT22;32202;48.780;9.204;2022-08-19T08:11:20;21.30;93.30
46488;DHT22;32202;48.780;9.204;2022-08-19T08:13:46;21.30;93.40
46488;DHT22;32202;48.780;9.204;2022-08-19T08:16:13;21.30;94.50
46488;DHT22;32202;48.780;9.204;2022-08-19T08:18:39;21.30;94.80
46488;DHT22;32202;48.780;9.204;2022-08-19T08:21:07;21.30;94.90
46488;DHT22;32202;48.780;9.204;2022-08-19T08:23:34;21.20;95.00
46488;DHT22;32202;48.780;9.204;2022-08-19T08:26:00;21.10;95.40
46488;DHT22;32202;48.780;9.204;2022-08-19T08:28:27;21.10;95.90
46488;DHT22;32202;48.780;9.204;2022-08-19T08:30:53;21.10;95.70
46488;DHT22;32202;48.780;9.204;2022-08-19T08:33:21;21.20;95.60
46488;DHT22;32202;48.780;9.204;2022-08-19T08:35:47;21.20;96.20
46488;DHT22;32202;48.780;9.204;2022-08-19T08:38:14;21.10;95.60
46488;DHT22;32202;48.780;9.204;2022-08-19T08:40:49;21.20;95.50
46488;DHT22;32202;48.780;9.204;2022-08-19T08:43:32;21.20;95.60
46488;DHT22;32202;48.780;9.204;2022-08-19T08:46:09;21.30;95.80
46488;DHT22;32202;48.780;9.204;2022-08-19T08:48:44;21.30;95.90
46488;DHT22;32202;48.780;9.204;2022-08-19T08:51:16;21.30;95.50
46488;DHT22;32202;48.780;9.204;2022-08-19T08:53:44;21.40;95.50
46488;DHT22;32202;48.780;9.204;2022-08-19T08:56:12;21.60;94.80
46488;DHT22;32202;48.780;9.204;2022-08-19T08:58:49;21.80;94.40
46488;DHT22;32202;48.780;9.204;2022-08-19T09:01:16;22.00;93.30
46488;DHT22;32202;48.780;9.204;2022-08-19T09:03:42;22.20;93.30
46488;DHT22;32202;48.780;9.204;2022-08-19T09:09:02;22.70;91.50
46488;DHT22;32202;48.780;9.204;2022-08-19T09:11:48;22.80;91.00
46488;DHT22;32202;48.780;9.204;2022-08-19T09:14:40;22.90;90.70
46488;DHT22;32202;48.780;9.204;2022-08-19T09:17:09;23.00;90.10
46488;DHT22;32202;48.780;9.204;2022-08-19T09:19:57;22.90;89.50
46488;DHT22;32202;48.780;9.204;2022-08-19T09:22:23;22.90;89.30
46488;DHT22;32202;48.780;9.204;2022-08-19T09:24:51;22.80;90.10
46488;DHT22;32202;48.780;9.204;2022-08-19T09:27:18;22.70;90.40
46488;DHT22;32202;48.780;9.204;2022-08-19T09:29:44;22.60;91.00
46488;DHT22;32202;48.780;9.204;2022-08-19T09:32:10;22.50;91.10
46488;DHT22;32202;48.780;9.204;2022-08-19T09:34:35;22.40;91.50
46488;DHT22;32202;48.780;9.204;2022-08-19T09:37:01;22.40;91.90
46488;DHT22;32202;48.780;9.204;2022-08-19T09:39:28;22.30;92.20
46488;DHT22;32202;48.780;9.204;2022-08-19T09:41:53;22.30;92.40
46488;DHT22;32202;48.780;9.204;2022-08-19T09:44:19;22.30;92.40
46488;DHT22;32202;48.780;9.204;2022-08-19T09:46:47;22.30;92.80
46488;DHT22;32202;48.780;9.204;2022-08-19T09:49:13;22.30;92.50
46488;DHT22;32202;48.780;9.204;2022-08-19T09:51:39;22.30;92.10
46488;DHT22;32202;48.780;9.204;2022-08-19T09:54:05;22.30;92.20
46488;DHT22;32202;48.780;9.204;2022-08-19T09:56:32;22.30;92.70
46488;DHT22;32202;48.780;9.204;2022-08-19T09:59:02;22.30;92.50
46488;DHT22;32202;48.780;9.204;2022-08-19T10:01:31;22.40;92.10
46488;DHT22;32202;48.780;9.204;2022-08-19T10:03:58;22.40;92.10
46488;DHT22;32202;48.780;9.204;2022-08-19T10:06:26;22.40;92.20
46488;DHT22;32202;48.780;9.204;2022-08-19T10:08:54;22.40;92.10
46488;DHT22;32202;48.780;9.204;2022-08-19T10:11:20;22.40;92.10
46488;DHT22;32202;48.780;9.204;2022-08-19T10:13:47;22.40;91.50
46488;DHT22;32202;48.780;9.204;2022-08-19T10:16:16;22.50;91.70
46488;DHT22;32202;48.780;9.204;2022-08-19T10:18:43;22.50;91.90
46488;DHT22;32202;48.780;9.204;2022-08-19T10:23:43;22.50;92.00
46488;DHT22;32202;48.780;9.204;2022-08-19T10:26:15;22.50;92.30
46488;DHT22;32202;48.780;9.204;2022-08-19T10:28:41;22.60;91.90
46488;DHT22;32202;48.780;9.204;2022-08-19T10:31:16;22.60;92.30
46488;DHT22;32202;48.780;9.204;2022-08-19T10:33:43;22.60;91.90
46488;DHT22;32202;48.780;9.204;2022-08-19T10:36:12;22.60;92.40
46488;DHT22;32202;48.780;9.204;2022-08-19T10:38:40;22.70;92.90
46488;DHT22;32202;48.780;9.204;2022-08-19T10:41:08;22.60;92.00
46488;DHT22;32202;48.780;9.204;2022-08-19T10:43:34;22.80;92.30
46488;DHT22;32202;48.780;9.204;2022-08-19T10:46:04;22.90;92.30
46488;DHT22;32202;48.780;9.204;2022-08-19T10:48:31;23.10;91.80
46488;DHT22;32202;48.780;9.204;2022-08-19T10:50:58;23.20;90.60
46488;DHT22;32202;48.780;9.204;2022-08-19T10:53:42;23.20;90.00
46488;DHT22;32202;48.780;9.204;2022-08-19T10:56:07;23.40;88.80
46488;DHT22;32202;48.780;9.204;2022-08-19T10:58:51;23.60;85.90
46488;DHT22;32202;48.780;9.204;2022-08-19T11:01:18;23.70;86.20
46488;DHT22;32202;48.780;9.204;2022-08-19T11:03:43;23.70;86.20
46488;DHT22;32202;48.780;9.204;2022-08-19T11:06:10;23.60;85.10
46488;DHT22;32202;48.780;9.204;2022-08-19T11:08:36;23.60;85.10
46488;DHT22;32202;48.780;9.204;2022-08-19T11:11:08;23.50;85.60
46488;DHT22;32202;48.780;9.204;2022-08-19T11:13:37;23.40;85.80
46488;DHT22;32202;48.780;9.204;2022-08-19T11:16:12;23.20;86.60
46488;DHT22;32202;48.780;9.204;2022-08-19T11:18:44;23.10;87.20
46488;DHT22;32202;48.780;9.204;2022-08-19T11:21:21;23.10;86.80
46488;DHT22;32202;48.780;9.204;2022-08-19T11:23:49;23.10;85.40
46488;DHT22;32202;48.780;9.204;2022-08-19T11:26:17;23.20;85.50
46488;DHT22;32202;48.780;9.204;2022-08-19T11:28:43;23.20;85.10
46488;DHT22;32202;48.780;9.204;2022-08-19T11:31:13;23.20;84.60
46488;DHT22;32202;48.780;9.204;2022-08-19T11:33:39;23.20;85.30
46488;DHT22;32202;48.780;9.204;2022-08-19T11:36:05;23.30;84.50
46488;DHT22;32202;48.780;9.204;2022-08-19T11:38:31;23.50;82.50
46488;DHT22;32202;48.780;9.204;2022-08-19T11:41:02;23.60;82.50
46488;DHT22;32202;48.780;9.204;2022-08-19T11:43:29;23.80;81.40
46488;DHT22;32202;48.780;9.204;2022-08-19T11:45:55;23.90;80.40
46488;DHT22;32202;48.780;9.204;2022-08-19T11:48:22;24.00;78.80
46488;DHT22;32202;48.780;9.204;2022-08-19T11:50:52;24.00;78.20
46488;DHT22;32202;48.780;9.204;2022-08-19T11:53:20;24.00;78.00
46488;DHT22;32202;48.780;9.204;2022-08-19T11:55:47;23.90;79.10
46488;DHT22;32202;48.780;9.204;2022-08-19T11:58:14;23.90;77.40
46488;DHT22;32202;48.780;9.204;2022-08-19T12:00:41;23.90;77.50
46488;DHT22;32202;48.780;9.204;2022-08-19T12:03:07;24.00;77.70
46488;DHT22;32202;48.780;9.204;2022-08-19T12:05:35;24.00;78.70
46488;DHT22;32202;48.780;9.204;2022-08-19T12:08:01;24.10;80.70
46488;DHT22;32202;48.780;9.204;2022-08-19T12:10:27;24.10;83.50
46488;DHT22;32202;48.780;9.204;2022-08-19T12:12:52;24.10;85.30
46488;DHT22;32202;48.780;9.204;2022-08-19T12:15:18;24.00;86.20
46488;DHT22;32202;48.780;9.204;2022-08-19T12:17:43;24.00;87.00
46488;DHT22;32202;48.780;9.204;2022-08-19T12:20:10;23.90;86.90
46488;DHT22;32202;48.780;9.204;2022-08-19T12:22:37;23.90;86.20
46488;DHT22;32202;48.780;9.204;2022-08-19T12:25:05;23.80;85.60
46488;DHT22;32202;48.780;9.204;2022-08-19T12:27:31;23.70;84.70
46488;DHT22;32202;48.780;9.204;2022-08-19T12:29:56;23.60;84.90
46488;DHT22;32202;48.780;9.204;2022-08-19T12:32:23;23.60;87.20
46488;DHT22;32202;48.780;9.204;2022-08-19T12:34:50;23.50;87.20
46488;DHT22;32202;48.780;9.204;2022-08-19T12:37:15;23.50;88.00
46488;DHT22;32202;48.780;9.204;2022-08-19T12:39:43;23.40;87.70
46488;DHT22;32202;48.780;9.204;2022-08-19T12:42:10;23.30;87.90
46488;DHT22;32202;48.780;9.204;2022-08-19T12:44:37;23.30;88.30
46488;DHT22;32202;48.780;9.204;2022-08-19T12:47:04;23.30;88.40
46488;DHT22;32202;48.780;9.204;2022-08-19T12:49:31;23.20;90.10
46488;DHT22;32202;48.780;9.204;2022-08-19T12:52:00;23.10;91.90
46488;DHT22;32202;48.780;9.204;2022-08-19T12:54:26;23.00;92.20
46488;DHT22;32202;48.780;9.204;2022-08-19T12:56:52;23.10;92.60
46488;DHT22;32202;48.780;9.204;2022-08-19T12:59:17;23.20;92.60
46488;DHT22;32202;48.780;9.204;2022-08-19T13:01:44;23.40;92.40
46488;DHT22;32202;48.780;9.204;2022-08-19T13:04:10;23.40;92.30
46488;DHT22;32202;48.780;9.204;2022-08-19T13:06:36;23.40;92.60
46488;DHT22;32202;48.780;9.204;2022-08-19T13:09:03;23.50;92.30
46488;DHT22;32202;48.780;9.204;2022-08-19T13:11:29;23.60;91.80
46488;DHT22;32202;48.780;9.204;2022-08-19T13:13:58;23.70;91.20
46488;DHT22;32202;48.780;9.204;2022-08-19T13:16:24;23.70;91.30
46488;DHT22;32202;48.780;9.204;2022-08-19T13:18:50;23.70;91.20
46488;DHT22;32202;48.780;9.204;2022-08-19T13:21:20;23.60;91.40
46488;DHT22;32202;48.780;9.204;2022-08-19T13:23:46;23.40;92.30
46488;DHT22;32202;48.780;9.204;2022-08-19T13:26:12;23.10;93.70
46488;DHT22;32202;48.780;9.204;2022-08-19T13:28:39;22.90;95.70
46488;DHT22;32202;48.780;9.204;2022-08-19T13:31:25;22.50;98.00
46488;DHT22;32202;48.780;9.204;2022-08-19T13:34:10;22.40;98.70
46488;DHT22;32202;48.780;9.204;2022-08-19T13:36:37;22.20;99.50
46488;DHT22;32202;48.780;9.204;2022-08-19T13:39:05;22.10;99.90
46488;DHT22;32202;48.780;9.204;2022-08-19T13:41:30;22.00;99.90
46488;DHT22;32202;48.780;9.204;2022-08-19T13:43:56;22.00;99.90
46488;DHT22;32202;48.780;9.204;2022-08-19T13:46:22;22.00;99.90
46488;DHT22;32202;48.780;9.204;2022-08-19T13:48:48;21.90;99.90
46488;DHT22;32202;48.780;9.204;2022-08-19T13:51:15;21.90;99.90
46488;DHT22;32202;48.780;9.204;2022-08-19T13:53:42;22.00;99.90
46488;DHT22;32202;48.780;9.204;2022-08-19T13:56:13;21.90;99.90
46488;DHT22;32202;48.780;9.204;2022-08-19T13:58:39;21.90;99.90
46488;DHT22;32202;48.780;9.204;2022-08-19T14:01:05;21.80;99.90
46488;DHT22;32202;48.780;9.204;2022-08-19T14:03:33;21.70;99.90
46488;DHT22;32202;48.780;9.204;2022-08-19T14:05:59;21.50;99.90
46488;DHT22;32202;48.780;9.204;2022-08-19T14:08:24;21.40;99.90
46488;DHT22;32202;48.780;9.204;2022-08-19T14:10:50;21.30;99.90
46488;DHT22;32202;48.780;9.204;2022-08-19T14:13:18;21.30;99.90
46488;DHT22;32202;48.780;9.204;2022-08-19T14:15:45;21.20;99.90
46488;DHT22;32202;48.780;9.204;2022-08-19T14:18:11;21.30;99.90
46488;DHT22;32202;48.780;9.204;2022-08-19T14:20:37;21.30;99.90
46488;DHT22;32202;48.780;9.204;2022-08-19T14:23:03;21.30;99.90
46488;DHT22;32202;48.780;9.204;2022-08-19T14:25:31;21.40;99.90
46488;DHT22;32202;48.780;9.204;2022-08-19T14:27:57;21.40;99.90
46488;DHT22;32202;48.780;9.204;2022-08-19T14:30:26;21.40;99.90
46488;DHT22;32202;48.780;9.204;2022-08-19T14:32:54;21.40;99.90
46488;DHT22;32202;48.780;9.204;2022-08-19T14:35:20;21.40;99.90
46488;DHT22;32202;48.780;9.204;2022-08-19T14:37:48;21.50;99.90
46488;DHT22;32202;48.780;9.204;2022-08-19T14:40:18;21.60;99.90
46488;DHT22;32202;48.780;9.204;2022-08-19T14:42:46;21.70;99.90
46488;DHT22;32202;48.780;9.204;2022-08-19T14:45:12;21.70;99.90
46488;DHT22;32202;48.780;9.204;2022-08-19T14:47:38;21.90;99.90
46488;DHT22;32202;48.780;9.204;2022-08-19T14:50:06;22.00;99.90
46488;DHT22;32202;48.780;9.204;2022-08-19T14:52:32;22.10;99.90
46488;DHT22;32202;48.780;9.204;2022-08-19T14:54:58;22.10;99.90
46488;DHT22;32202;48.780;9.204;2022-08-19T14:57:23;22.00;99.90
46488;DHT22;32202;48.780;9.204;2022-08-19T14:59:49;22.00;99.90
46488;DHT22;32202;48.780;9.204;2022-08-19T15:02:14;22.10;99.90
46488;DHT22;32202;48.780;9.204;2022-08-19T15:04:40;22.00;99.90
46488;DHT22;32202;48.780;9.204;2022-08-19T15:07:06;21.90;99.90
46488;DHT22;32202;48.780;9.204;2022-08-19T15:09:32;21.90;99.90
46488;DHT22;32202;48.780;9.204;2022-08-19T15:11:58;21.90;99.90
46488;DHT22;32202;48.780;9.204;2022-08-19T15:14:25;22.00;99.90
46488;DHT22;32202;48.780;9.204;2022-08-19T15:16:51;22.00;99.90
46488;DHT22;32202;48.780;9.204;2022-08-19T15:19:17;22.20;99.30
46488;DHT22;32202;48.780;9.204;2022-08-19T15:21:43;22.40;98.30
46488;DHT22;32202;48.780;9.204;2022-08-19T15:24:08;22.70;96.90
46488;DHT22;32202;48.780;9.204;2022-08-19T15:26:34;23.10;95.00
46488;DHT22;32202;48.780;9.204;2022-08-19T15:29:01;23.40;93.50
46488;DHT22;32202;48.780;9.204;2022-08-19T15:31:27;23.60;92.30
46488;DHT22;32202;48.780;9.204;2022-08-19T15:33:53;23.80;91.30
46488;DHT22;32202;48.780;9.204;2022-08-19T15:36:21;23.90;91.80
46488;DHT22;32202;48.780;9.204;2022-08-19T15:38:48;24.00;91.20